Time;durP1;ratioP1;P1;durP2;ratioP2;P2;SDS_P1;SDS_P2;PMS_P1;PMS_P2;Temp;Humidity;BMP_temperature;BMP_pressure;BME280_temperature;BME280_humidity;BME280_pressure;Samples;Min_cycle;Max_cycle;Signal;HPM_P1;HPM_P2
2022/07/06 00:01:31;;;;;;;4.03;1.83;;;;;;;;;;4877962;29;20531;-67
2022/07/06 00:03:58;;;;;;;4.00;2.10;;;;;;;;;;4878950;29;20552;-67
2022/07/06 00:06:25;;;;;;;2.53;1.55;;;;;;;;;;4878969;29;20060;-67
2022/07/06 00:08:52;;;;;;;2.22;1.85;;;;;;;;;;4878801;29;20057;-66
2022/07/06 00:11:18;;;;;;;6.57;1.65;;;;;;;;;;4878803;29;20060;-67
2022/07/06 00:13:45;;;;;;;2.13;1.42;;;;;;;;;;4878865;29;20056;-67
2022/07/06 00:16:12;;;;;;;2.55;1.50;;;;;;;;;;4877486;29;20056;-67
2022/07/06 00:18:38;;;;;;;3.92;1.83;;;;;;;;;;4878754;29;20057;-66
2022/07/06 00:21:05;;;;;;;2.40;1.85;;;;;;;;;;4878887;29;20132;-66
2022/07/06 00:23:32;;;;;;;1.75;1.55;;;;;;;;;;4878665;29;20072;-66
2022/07/06 00:25:58;;;;;;;2.53;1.60;;;;;;;;;;4878638;29;20045;-66
2022/07/06 00:28:25;;;;;;;2.58;1.60;;;;;;;;;;4878394;29;20064;-66
2022/07/06 00:30:52;;;;;;;4.75;2.58;;;;;;;;;;4878817;29;20053;-67
2022/07/06 00:33:19;;;;;;;3.40;1.90;;;;;;;;;;4877504;29;20053;-67
2022/07/06 00:35:46;;;;;;;2.40;1.80;;;;;;;;;;4877321;29;20515;-67
2022/07/06 00:38:14;;;;;;;2.88;2.03;;;;;;;;;;4892474;29;20465;-67
2022/07/06 00:40:41;;;;;;;2.15;1.80;;;;;;;;;;4892771;29;20454;-67
2022/07/06 00:43:07;;;;;;;3.50;2.00;;;;;;;;;;4892727;29;20059;-67
2022/07/06 00:45:34;;;;;;;2.83;2.05;;;;;;;;;;4878604;29;20108;-67
2022/07/06 00:48:01;;;;;;;1.77;1.58;;;;;;;;;;4899798;29;20561;-67
2022/07/06 00:50:28;;;;;;;2.40;2.00;;;;;;;;;;4877064;29;20570;-67
2022/07/06 00:52:56;;;;;;;2.75;1.88;;;;;;;;;;4878220;29;20053;-65
2022/07/06 00:55:26;;;;;;;4.28;2.10;;;;;;;;;;4861833;29;20497;-67
2022/07/06 00:57:52;;;;;;;6.82;1.90;;;;;;;;;;4876830;29;20072;-67
2022/07/06 01:00:21;;;;;;;4.90;2.00;;;;;;;;;;4877003;29;20064;-67
2022/07/06 01:02:48;;;;;;;4.47;2.13;;;;;;;;;;4877058;29;20059;-66
2022/07/06 01:05:15;;;;;;;3.40;2.10;;;;;;;;;;4878150;29;20588;-67
2022/07/06 01:07:43;;;;;;;2.78;2.03;;;;;;;;;;4876796;29;20049;-67
2022/07/06 01:10:11;;;;;;;4.30;2.55;;;;;;;;;;4877179;29;20526;-66
2022/07/06 01:12:39;;;;;;;2.53;2.10;;;;;;;;;;4847108;29;20049;-66
2022/07/06 01:15:08;;;;;;;3.38;2.13;;;;;;;;;;4859538;29;20058;-67
2022/07/06 01:17:35;;;;;;;2.47;1.92;;;;;;;;;;4858316;29;20060;-67
2022/07/06 01:20:14;;;;;;;2.78;2.15;;;;;;;;;;4857972;29;20084;-67
2022/07/06 01:22:42;;;;;;;3.83;2.35;;;;;;;;;;4873611;29;20061;-66
2022/07/06 01:25:09;;;;;;;4.85;2.17;;;;;;;;;;4876772;29;20059;-66
2022/07/06 01:27:40;;;;;;;2.53;2.10;;;;;;;;;;4876779;29;20075;-67
2022/07/06 01:30:08;;;;;;;3.80;1.77;;;;;;;;;;4877882;29;20057;-67
2022/07/06 01:32:35;;;;;;;3.80;1.95;;;;;;;;;;4877953;29;20117;-67
2022/07/06 01:35:04;;;;;;;5.18;1.70;;;;;;;;;;4861462;29;20061;-66
2022/07/06 01:37:31;;;;;;;2.40;2.00;;;;;;;;;;4861833;29;20049;-66
2022/07/06 01:40:00;;;;;;;2.25;2.00;;;;;;;;;;4877930;29;20081;-67
2022/07/06 01:42:27;;;;;;;3.40;2.10;;;;;;;;;;4876562;29;20053;-67
2022/07/06 01:44:54;;;;;;;4.88;1.85;;;;;;;;;;4877804;29;20516;-67
2022/07/06 01:47:24;;;;;;;4.88;2.10;;;;;;;;;;4876587;29;20049;-67
2022/07/06 01:49:50;;;;;;;3.13;2.00;;;;;;;;;;4876536;29;20500;-66
2022/07/06 01:52:17;;;;;;;2.22;1.90;;;;;;;;;;4861505;29;20057;-66
2022/07/06 01:54:43;;;;;;;3.58;2.08;;;;;;;;;;4876620;29;20060;-66
2022/07/06 01:57:10;;;;;;;4.03;2.10;;;;;;;;;;4869450;23;20701;-67
2022/07/06 01:59:37;;;;;;;7.32;2.70;;;;;;;;;;4915004;29;20056;-67
2022/07/06 02:02:04;;;;;;;2.33;2.13;;;;;;;;;;4915373;29;20048;-66
2022/07/06 02:04:31;;;;;;;2.63;2.00;;;;;;;;;;4915244;29;20063;-67
2022/07/06 02:06:58;;;;;;;2.10;1.83;;;;;;;;;;4915090;29;20048;-67
2022/07/06 02:09:24;;;;;;;2.20;1.90;;;;;;;;;;4915082;29;20072;-67
2022/07/06 02:11:51;;;;;;;3.17;1.95;;;;;;;;;;4915042;29;20059;-67
2022/07/06 02:14:17;;;;;;;7.40;2.50;;;;;;;;;;4915086;29;20495;-67
2022/07/06 02:16:44;;;;;;;3.20;2.28;;;;;;;;;;4915177;29;20056;-67
2022/07/06 02:19:11;;;;;;;3.17;2.03;;;;;;;;;;4915150;29;20148;-67
2022/07/06 02:21:37;;;;;;;3.92;2.20;;;;;;;;;;4917332;29;20063;-67
2022/07/06 02:24:04;;;;;;;5.47;2.47;;;;;;;;;;4918398;29;20052;-67
2022/07/06 02:26:31;;;;;;;4.50;2.17;;;;;;;;;;4918438;29;20095;-67
2022/07/06 02:28:57;;;;;;;4.78;2.22;;;;;;;;;;4918028;29;20492;-67
2022/07/06 02:31:24;;;;;;;4.20;2.30;;;;;;;;;;4918496;29;20131;-67
2022/07/06 02:33:51;;;;;;;6.70;3.00;;;;;;;;;;4918468;29;20119;-67
2022/07/06 02:36:17;;;;;;;5.75;1.88;;;;;;;;;;4918129;29;20052;-67
2022/07/06 02:38:44;;;;;;;3.15;2.03;;;;;;;;;;4917983;29;20056;-67
2022/07/06 02:41:10;;;;;;;3.10;2.00;;;;;;;;;;4918170;29;20060;-67
2022/07/06 02:43:38;;;;;;;3.65;2.10;;;;;;;;;;4918411;29;20733;-66
2022/07/06 02:46:05;;;;;;;2.63;1.88;;;;;;;;;;4916845;29;20052;-67
2022/07/06 02:48:32;;;;;;;3.65;2.33;;;;;;;;;;4917883;29;20112;-67
2022/07/06 02:50:59;;;;;;;3.05;2.10;;;;;;;;;;4918027;29;20059;-67
2022/07/06 02:53:25;;;;;;;3.33;2.47;;;;;;;;;;4917893;29;20051;-67
2022/07/06 02:55:52;;;;;;;8.75;2.95;;;;;;;;;;4917638;29;20510;-67
2022/07/06 02:58:19;;;;;;;4.35;2.70;;;;;;;;;;4917627;29;20048;-67
2022/07/06 03:00:46;;;;;;;9.38;2.78;;;;;;;;;;4917600;29;20055;-67
2022/07/06 03:03:12;;;;;;;2.80;2.20;;;;;;;;;;4917958;29;20052;-67
2022/07/06 03:05:39;;;;;;;3.80;2.25;;;;;;;;;;4917743;29;20089;-67
2022/07/06 03:08:06;;;;;;;3.72;2.03;;;;;;;;;;4919177;29;20052;-67
2022/07/06 03:10:32;;;;;;;3.80;2.67;;;;;;;;;;4922604;29;20052;-67
2022/07/06 03:12:59;;;;;;;4.03;2.55;;;;;;;;;;4920487;29;20111;-67
2022/07/06 03:15:26;;;;;;;4.35;2.55;;;;;;;;;;4921218;29;20060;-67
2022/07/06 03:17:52;;;;;;;4.10;2.10;;;;;;;;;;4919744;29;20448;-67
2022/07/06 03:20:19;;;;;;;3.97;2.40;;;;;;;;;;4920590;29;20055;-67
2022/07/06 03:22:46;;;;;;;4.28;2.50;;;;;;;;;;4920693;29;20048;-67
2022/07/06 03:25:13;;;;;;;3.92;2.63;;;;;;;;;;4919576;29;20075;-67
2022/07/06 03:27:39;;;;;;;5.25;2.60;;;;;;;;;;4919707;29;20056;-67
2022/07/06 03:30:06;;;;;;;3.70;2.40;;;;;;;;;;4919702;29;20111;-67
2022/07/06 03:32:39;;;;;;;4.82;2.80;;;;;;;;;;4918886;29;20059;-67
2022/07/06 03:35:06;;;;;;;4.22;2.40;;;;;;;;;;4919676;29;20048;-67
2022/07/06 03:37:33;;;;;;;7.18;3.00;;;;;;;;;;4920044;29;20048;-67
2022/07/06 03:40:00;;;;;;;5.95;2.50;;;;;;;;;;4917779;29;20048;-66
2022/07/06 03:42:26;;;;;;;3.05;2.38;;;;;;;;;;4919312;29;20052;-67
2022/07/06 03:44:53;;;;;;;3.38;2.28;;;;;;;;;;4919086;29;20055;-66
2022/07/06 03:47:19;;;;;;;2.78;2.53;;;;;;;;;;4918934;29;20059;-67
2022/07/06 03:49:46;;;;;;;5.78;2.72;;;;;;;;;;4918944;29;20518;-66
2022/07/06 03:52:13;;;;;;;3.10;2.67;;;;;;;;;;4918388;29;20048;-67
2022/07/06 03:54:39;;;;;;;3.60;2.72;;;;;;;;;;4918863;29;20048;-66
2022/07/06 03:57:06;;;;;;;3.25;2.22;;;;;;;;;;4918457;29;20048;-67
2022/07/06 03:59:33;;;;;;;3.60;2.25;;;;;;;;;;4919705;29;20059;-69
2022/07/06 04:01:59;;;;;;;3.58;2.30;;;;;;;;;;4916881;29;20052;-67
2022/07/06 04:04:26;;;;;;;5.13;2.85;;;;;;;;;;4916666;29;20083;-67
2022/07/06 04:06:53;;;;;;;3.20;2.60;;;;;;;;;;4916419;29;20059;-67
2022/07/06 04:09:19;;;;;;;5.38;2.80;;;;;;;;;;4916396;29;20048;-67
2022/07/06 04:11:46;;;;;;;6.35;2.88;;;;;;;;;;4916702;29;20060;-67
2022/07/06 04:14:12;;;;;;;4.32;2.90;;;;;;;;;;4916973;29;20415;-67
2022/07/06 04:16:39;;;;;;;8.10;2.90;;;;;;;;;;4917495;29;20129;-67
2022/07/06 04:19:06;;;;;;;4.63;2.88;;;;;;;;;;4921541;29;20056;-67
2022/07/06 04:21:32;;;;;;;4.85;3.17;;;;;;;;;;4923067;29;20084;-67
2022/07/06 04:23:59;;;;;;;3.75;2.88;;;;;;;;;;4919683;29;20048;-67
2022/07/06 04:26:26;;;;;;;3.63;2.63;;;;;;;;;;4922612;29;20055;-67
2022/07/06 04:28:52;;;;;;;4.07;2.90;;;;;;;;;;4922826;29;20056;-67
2022/07/06 04:31:19;;;;;;;6.95;3.22;;;;;;;;;;4924970;29;20123;-67
2022/07/06 04:33:45;;;;;;;5.25;2.85;;;;;;;;;;4926336;29;20052;-67
2022/07/06 04:36:12;;;;;;;4.75;2.90;;;;;;;;;;4927934;29;20055;-66
2022/07/06 04:38:39;;;;;;;3.97;3.58;;;;;;;;;;4926869;29;20111;-67
2022/07/06 04:41:06;;;;;;;5.68;3.00;;;;;;;;;;4921904;29;20482;-70
2022/07/06 04:43:36;;;;;;;5.18;3.25;;;;;;;;;;4921340;29;20048;-69
2022/07/06 04:46:03;;;;;;;4.25;3.00;;;;;;;;;;4915658;29;20052;-67
2022/07/06 04:48:29;;;;;;;5.53;3.33;;;;;;;;;;4908830;29;20056;-67
2022/07/06 04:50:56;;;;;;;8.13;3.85;;;;;;;;;;4910784;29;20103;-68
2022/07/06 04:53:23;;;;;;;3.50;3.20;;;;;;;;;;4914120;29;20063;-67
2022/07/06 04:55:49;;;;;;;6.38;3.45;;;;;;;;;;4912476;29;20503;-67
2022/07/06 04:58:16;;;;;;;5.57;3.30;;;;;;;;;;4914243;29;20052;-67
2022/07/06 05:00:43;;;;;;;3.75;3.40;;;;;;;;;;4910820;29;20048;-68
2022/07/06 05:03:09;;;;;;;6.68;3.35;;;;;;;;;;4911107;29;20063;-68
2022/07/06 05:05:36;;;;;;;3.42;3.13;;;;;;;;;;4910282;29;20060;-68
2022/07/06 05:08:03;;;;;;;5.03;3.22;;;;;;;;;;4909539;29;20056;-68
2022/07/06 05:10:31;;;;;;;5.43;3.30;;;;;;;;;;4910468;29;20544;-68
2022/07/06 05:12:57;;;;;;;4.95;3.35;;;;;;;;;;4909074;29;20056;-68
2022/07/06 05:15:24;;;;;;;4.10;3.47;;;;;;;;;;4921067;29;20056;-68
2022/07/06 05:17:50;;;;;;;3.65;3.10;;;;;;;;;;4915866;29;20055;-68
2022/07/06 05:20:17;;;;;;;6.70;4.00;;;;;;;;;;4916322;29;20138;-68
2022/07/06 05:22:44;;;;;;;5.70;3.30;;;;;;;;;;4915990;29;20080;-68
2022/07/06 05:25:12;;;;;;;4.90;3.42;;;;;;;;;;4915633;29;20059;-67
2022/07/06 05:27:39;;;;;;;5.68;3.38;;;;;;;;;;4915516;29;20045;-68
2022/07/06 05:30:06;;;;;;;5.35;3.75;;;;;;;;;;4915187;29;20052;-67
2022/07/06 05:32:32;;;;;;;5.43;3.33;;;;;;;;;;4915772;29;20051;-67
2022/07/06 05:34:59;;;;;;;8.68;3.63;;;;;;;;;;4913060;29;20107;-67
2022/07/06 05:37:45;;;;;;;4.38;3.28;;;;;;;;;;4913673;29;20048;-67
2022/07/06 05:40:12;;;;;;;7.40;3.70;;;;;;;;;;4913415;29;20056;-66
2022/07/06 05:42:39;;;;;;;5.03;3.40;;;;;;;;;;4913536;29;20048;-67
2022/07/06 05:45:06;;;;;;;5.47;3.25;;;;;;;;;;4913768;29;20055;-67
2022/07/06 05:50:18;;;;;;;5.72;2.83;;;;;;;;;;4912928;29;20085;-70
2022/07/06 05:52:58;;;;;;;4.03;3.58;;;;;;;;;;4913331;29;20058;-74
2022/07/06 05:55:25;;;;;;;7.18;3.28;;;;;;;;;;4912491;29;20052;-74
2022/07/06 05:57:53;;;;;;;4.57;2.80;;;;;;;;;;4917118;29;20059;-68
2022/07/06 06:00:21;;;;;;;3.85;2.63;;;;;;;;;;4916543;29;20056;-67
2022/07/06 06:02:48;;;;;;;3.40;2.47;;;;;;;;;;4917158;29;20496;-68
2022/07/06 06:05:14;;;;;;;2.65;2.45;;;;;;;;;;4916763;29;20063;-67
2022/07/06 06:07:51;;;;;;;6.40;2.35;;;;;;;;;;4917190;29;20055;-65
2022/07/06 06:10:18;;;;;;;6.63;1.95;;;;;;;;;;4917058;29;20064;-65
2022/07/06 06:12:45;;;;;;;5.03;2.20;;;;;;;;;;4918703;29;20518;-65
2022/07/06 06:15:11;;;;;;;3.83;2.45;;;;;;;;;;4918495;29;20056;-65
2022/07/06 06:17:39;;;;;;;2.63;1.95;;;;;;;;;;4918625;29;20055;-65
2022/07/06 06:20:07;;;;;;;4.32;2.00;;;;;;;;;;4918304;29;20059;-65
2022/07/06 06:22:53;;;;;;;5.53;2.30;;;;;;;;;;4918839;29;20052;-65
2022/07/06 06:25:26;;;;;;;5.00;1.73;;;;;;;;;;4918396;29;20051;-65
2022/07/06 06:27:53;;;;;;;4.13;2.00;;;;;;;;;;4918447;29;20427;-66
2022/07/06 06:30:20;;;;;;;3.15;2.10;;;;;;;;;;4918471;29;20056;-66
2022/07/06 06:32:46;;;;;;;3.97;2.20;;;;;;;;;;4918155;29;20059;-65
2022/07/06 06:35:13;;;;;;;5.07;2.00;;;;;;;;;;4918366;29;20052;-66
2022/07/06 06:37:40;;;;;;;7.45;2.20;;;;;;;;;;4918093;29;20059;-65
2022/07/06 06:40:07;;;;;;;4.70;2.10;;;;;;;;;;4918191;29;20431;-66
2022/07/06 06:42:39;;;;;;;2.50;1.95;;;;;;;;;;4917986;29;20500;-65
2022/07/06 06:45:06;;;;;;;3.95;1.92;;;;;;;;;;4918330;29;20052;-65
2022/07/06 06:47:33;;;;;;;4.55;2.35;;;;;;;;;;4918210;29;20063;-65
2022/07/06 06:50:00;;;;;;;4.90;2.00;;;;;;;;;;4920544;29;20060;-65
2022/07/06 06:52:26;;;;;;;3.65;2.47;;;;;;;;;;4918529;29;20056;-65
2022/07/06 06:55:08;;;;;;;4.63;2.10;;;;;;;;;;4917848;29;20059;-66
2022/07/06 06:57:35;;;;;;;4.95;2.30;;;;;;;;;;4921232;29;20139;-65
2022/07/06 07:00:04;;;;;;;4.53;2.08;;;;;;;;;;4917690;29;20145;-65
2022/07/06 07:02:30;;;;;;;3.33;2.20;;;;;;;;;;4917775;29;20059;-66
2022/07/06 07:04:57;;;;;;;4.07;2.22;;;;;;;;;;4917673;29;20048;-66
2022/07/06 07:07:24;;;;;;;5.30;2.20;;;;;;;;;;4916496;29;20048;-65
2022/07/06 07:09:50;;;;;;;3.78;2.17;;;;;;;;;;4917532;29;20477;-65
2022/07/06 07:12:17;;;;;;;4.05;2.10;;;;;;;;;;4917472;29;20527;-66
2022/07/06 07:14:44;;;;;;;4.28;2.20;;;;;;;;;;4917816;29;20472;-66
2022/07/06 07:17:11;;;;;;;2.67;2.35;;;;;;;;;;4917654;29;20134;-66
2022/07/06 07:19:38;;;;;;;3.28;2.15;;;;;;;;;;4917448;29;20058;-65
2022/07/06 07:22:05;;;;;;;4.30;2.15;;;;;;;;;;4917598;29;20071;-65
2022/07/06 07:24:32;;;;;;;4.53;2.05;;;;;;;;;;4917291;29;20052;-66
2022/07/06 07:26:58;;;;;;;4.05;2.30;;;;;;;;;;4917681;29;20048;-66
2022/07/06 07:29:25;;;;;;;7.28;2.88;;;;;;;;;;4917290;29;20052;-65
2022/07/06 07:31:51;;;;;;;3.83;2.15;;;;;;;;;;4917343;29;20076;-65
2022/07/06 07:34:18;;;;;;;7.90;2.75;;;;;;;;;;4917261;29;20346;-65
2022/07/06 07:36:45;;;;;;;5.65;2.60;;;;;;;;;;4917201;29;20099;-66
2022/07/06 07:39:11;;;;;;;4.47;2.58;;;;;;;;;;4916856;29;20060;-66
2022/07/06 07:41:38;;;;;;;4.60;2.90;;;;;;;;;;4917369;29;20059;-65
2022/07/06 07:44:05;;;;;;;3.38;2.38;;;;;;;;;;4917088;29;20063;-65
2022/07/06 07:46:31;;;;;;;5.72;3.35;;;;;;;;;;4916955;29;20062;-66
2022/07/06 07:48:58;;;;;;;6.88;2.10;;;;;;;;;;4916688;29;20052;-65
2022/07/06 07:51:25;;;;;;;4.32;2.30;;;;;;;;;;4917115;29;20074;-65
2022/07/06 07:53:51;;;;;;;2.33;2.10;;;;;;;;;;4916915;29;20427;-65
2022/07/06 07:56:18;;;;;;;3.92;2.30;;;;;;;;;;4916925;29;20555;-66
2022/07/06 07:58:45;;;;;;;3.72;2.70;;;;;;;;;;4916975;29;20127;-66
2022/07/06 08:01:11;;;;;;;4.18;2.45;;;;;;;;;;4916639;29;20052;-66
2022/07/06 08:03:38;;;;;;;3.78;2.00;;;;;;;;;;4916627;29;20059;-66
2022/07/06 08:06:05;;;;;;;3.00;2.30;;;;;;;;;;4916776;29;20048;-66
2022/07/06 08:08:31;;;;;;;3.47;2.10;;;;;;;;;;4916271;29;20059;-66
2022/07/06 08:10:58;;;;;;;3.05;2.20;;;;;;;;;;4916671;29;20055;-66
2022/07/06 08:13:43;;;;;;;6.55;2.58;;;;;;;;;;4897787;29;20064;-66
2022/07/06 08:16:10;;;;;;;2.78;2.20;;;;;;;;;;4899193;29;20049;-66
2022/07/06 08:18:37;;;;;;;5.95;2.63;;;;;;;;;;4899150;29;20052;-66
2022/07/06 08:21:04;;;;;;;3.80;2.40;;;;;;;;;;4899591;29;20136;-66
2022/07/06 08:23:49;;;;;;;6.38;2.35;;;;;;;;;;4903467;29;20048;-66
2022/07/06 08:26:16;;;;;;;4.10;2.50;;;;;;;;;;4917871;29;20055;-66
2022/07/06 08:28:43;;;;;;;7.43;2.10;;;;;;;;;;4917364;29;20056;-66
2022/07/06 08:31:10;;;;;;;5.78;2.53;;;;;;;;;;4917615;29;20052;-66
2022/07/06 08:33:57;;;;;;;4.03;2.38;;;;;;;;;;4918558;29;20048;-66
2022/07/06 08:36:24;;;;;;;5.78;3.17;;;;;;;;;;4917065;29;20115;-66
2022/07/06 08:38:50;;;;;;;3.15;2.00;;;;;;;;;;4916860;29;20051;-66
2022/07/06 08:41:17;;;;;;;2.25;1.90;;;;;;;;;;4917304;29;20056;-66
2022/07/06 08:43:51;;;;;;;3.45;2.20;;;;;;;;;;4916267;29;20459;-66
2022/07/06 08:46:19;;;;;;;2.70;2.15;;;;;;;;;;4915725;29;20086;-66
2022/07/06 08:48:46;;;;;;;2.55;2.13;;;;;;;;;;4916020;29;20056;-66
2022/07/06 08:51:16;;;;;;;3.65;2.97;;;;;;;;;;4900282;29;20487;-66
2022/07/06 08:53:43;;;;;;;3.88;2.33;;;;;;;;;;4916785;29;20059;-66
2022/07/06 08:56:09;;;;;;;3.40;2.20;;;;;;;;;;4916213;29;20059;-66
2022/07/06 08:58:36;;;;;;;2.40;2.03;;;;;;;;;;4914236;29;20052;-66
2022/07/06 09:01:03;;;;;;;3.88;2.30;;;;;;;;;;4916021;29;20060;-66
2022/07/06 09:03:29;;;;;;;4.00;2.20;;;;;;;;;;4916107;29;20082;-66
2022/07/06 09:05:59;;;;;;;2.88;2.17;;;;;;;;;;4899461;29;20079;-66
2022/07/06 09:08:27;;;;;;;2.95;2.72;;;;;;;;;;4898919;29;20048;-66
2022/07/06 09:10:54;;;;;;;4.90;2.60;;;;;;;;;;4915932;29;20079;-66
2022/07/06 09:13:20;;;;;;;3.30;2.40;;;;;;;;;;4916317;29;20052;-66
2022/07/06 09:15:48;;;;;;;8.10;2.22;;;;;;;;;;4915888;29;20508;-66
2022/07/06 09:18:15;;;;;;;4.22;2.42;;;;;;;;;;4915516;29;20546;-66
2022/07/06 09:20:42;;;;;;;4.32;2.67;;;;;;;;;;4916593;29;20056;-66
2022/07/06 09:23:09;;;;;;;6.70;3.03;;;;;;;;;;4918031;29;20052;-66
2022/07/06 09:25:42;;;;;;;2.45;1.85;;;;;;;;;;4915665;29;20076;-66
2022/07/06 09:28:09;;;;;;;3.10;2.25;;;;;;;;;;4915793;29;20059;-66
2022/07/06 09:30:40;;;;;;;2.85;2.05;;;;;;;;;;4916642;29;20056;-66
2022/07/06 09:33:07;;;;;;;3.58;2.47;;;;;;;;;;4919700;29;20056;-66
2022/07/06 09:35:38;;;;;;;3.33;2.03;;;;;;;;;;4918165;29;20052;-66
2022/07/06 09:38:05;;;;;;;2.20;2.00;;;;;;;;;;4919002;29;20107;-66
2022/07/06 09:40:34;;;;;;;5.55;2.83;;;;;;;;;;4919356;29;20496;-66
2022/07/06 09:43:23;;;;;;;4.82;1.98;;;;;;;;;;4919601;29;20138;-65
2022/07/06 09:45:55;;;;;;;3.88;2.10;;;;;;;;;;4900537;29;20053;-66
2022/07/06 09:48:24;;;;;;;8.07;2.03;;;;;;;;;;4900053;29;20060;-66
2022/07/06 09:50:53;;;;;;;2.65;2.40;;;;;;;;;;4900543;29;20052;-66
2022/07/06 09:53:25;;;;;;;6.22;2.83;;;;;;;;;;4900548;29;20063;-66
2022/07/06 09:55:54;;;;;;;3.95;1.95;;;;;;;;;;4900102;29;20556;-66
2022/07/06 09:58:21;;;;;;;4.25;1.70;;;;;;;;;;4914377;29;20055;-66
2022/07/06 10:01:07;;;;;;;3.30;2.20;;;;;;;;;;4919127;29;20056;-66
2022/07/06 10:03:34;;;;;;;2.22;1.88;;;;;;;;;;4902013;29;20055;-66
2022/07/06 10:06:01;;;;;;;4.72;2.10;;;;;;;;;;4919060;29;20044;-66
2022/07/06 10:08:28;;;;;;;6.45;1.95;;;;;;;;;;4918614;29;20422;-66
2022/07/06 10:10:54;;;;;;;5.20;3.05;;;;;;;;;;4917565;29;20060;-66
2022/07/06 10:13:21;;;;;;;3.30;1.70;;;;;;;;;;4917445;29;20397;-66
2022/07/06 10:15:48;;;;;;;3.75;2.10;;;;;;;;;;4917878;29;20048;-66
2022/07/06 10:18:14;;;;;;;5.28;2.78;;;;;;;;;;4917404;29;20123;-66
2022/07/06 10:20:41;;;;;;;2.88;2.08;;;;;;;;;;4918495;29;20056;-66
2022/07/06 10:23:09;;;;;;;4.65;1.90;;;;;;;;;;4917481;29;20056;-66
2022/07/06 10:25:35;;;;;;;4.28;2.15;;;;;;;;;;4918580;29;20563;-66
2022/07/06 10:28:02;;;;;;;5.35;2.00;;;;;;;;;;4918160;29;20415;-66
2022/07/06 10:30:29;;;;;;;3.75;1.85;;;;;;;;;;4901364;29;20496;-66
2022/07/06 10:32:58;;;;;;;3.92;2.42;;;;;;;;;;4917198;29;20503;-66
2022/07/06 10:35:24;;;;;;;3.80;2.33;;;;;;;;;;4917187;29;20055;-66
2022/07/06 10:38:08;;;;;;;5.32;1.80;;;;;;;;;;4917946;29;20487;-66
2022/07/06 10:43:45;;;;;;;7.68;2.17;;;;;;;;;;4899440;29;20063;-66
2022/07/06 10:46:15;;;;;;;9.93;2.28;;;;;;;;;;4898956;29;20060;-66
2022/07/06 10:48:46;;;;;;;5.70;1.70;;;;;;;;;;4898875;29;20053;-66
2022/07/06 10:51:22;;;;;;;5.78;2.35;;;;;;;;;;4899025;29;20063;-66
2022/07/06 10:53:56;;;;;;;3.63;2.03;;;;;;;;;;4906670;29;20051;-66
2022/07/06 10:56:32;;;;;;;5.05;1.90;;;;;;;;;;4917997;29;20056;-64
2022/07/06 10:59:19;;;;;;;5.45;1.77;;;;;;;;;;4917537;29;20075;-68
2022/07/06 11:02:17;;;;;;;5.72;2.33;;;;;;;;;;4917815;29;20056;-64
2022/07/06 11:04:48;;;;;;;9.45;2.63;;;;;;;;;;4917638;29;20522;-64
2022/07/06 11:07:16;;;;;;;2.85;2.00;;;;;;;;;;4917755;29;20052;-67
2022/07/06 11:10:09;;;;;;;5.43;2.15;;;;;;;;;;4917563;29;20419;-63
2022/07/06 11:12:35;;;;;;;2.78;1.50;;;;;;;;;;4915636;29;20062;-64
2022/07/06 11:15:03;;;;;;;4.68;1.88;;;;;;;;;;4917001;29;20095;-67
2022/07/06 11:17:30;;;;;;;3.88;2.63;;;;;;;;;;4899881;29;20047;-64
2022/07/06 11:19:58;;;;;;;4.07;2.30;;;;;;;;;;4916076;29;20044;-63
2022/07/06 11:22:26;;;;;;;3.83;1.90;;;;;;;;;;4916406;29;20052;-64
2022/07/06 11:24:53;;;;;;;3.40;1.67;;;;;;;;;;4915349;29;20059;-63
2022/07/06 11:27:21;;;;;;;2.92;1.70;;;;;;;;;;4914888;29;20048;-63
2022/07/06 11:29:47;;;;;;;3.90;1.88;;;;;;;;;;4891841;29;20056;-63
2022/07/06 11:32:14;;;;;;;5.35;1.92;;;;;;;;;;4912944;29;20062;-63
2022/07/06 11:34:42;;;;;;;3.78;2.00;;;;;;;;;;4908204;29;20170;-64
2022/07/06 11:37:11;;;;;;;2.38;1.70;;;;;;;;;;4915270;29;20052;-63
2022/07/06 11:39:42;;;;;;;3.72;1.85;;;;;;;;;;4911656;29;20056;-63
2022/07/06 11:42:11;;;;;;;4.38;2.20;;;;;;;;;;4912058;29;20140;-63
2022/07/06 11:44:38;;;;;;;5.75;2.40;;;;;;;;;;4906989;29;20044;-64
2022/07/06 11:47:06;;;;;;;3.10;1.83;;;;;;;;;;4908213;29;20134;-64
2022/07/06 11:49:34;;;;;;;4.07;2.03;;;;;;;;;;4906466;29;20048;-64
2022/07/06 11:52:11;;;;;;;5.35;2.00;;;;;;;;;;4906941;29;20048;-64
2022/07/06 11:54:38;;;;;;;4.15;1.83;;;;;;;;;;4912323;29;20535;-64
2022/07/06 11:57:08;;;;;;;3.85;1.92;;;;;;;;;;4910707;29;20605;-64
2022/07/06 11:59:37;;;;;;;3.38;1.95;;;;;;;;;;4916420;29;20059;-63
2022/07/06 12:02:30;;;;;;;3.13;2.00;;;;;;;;;;4916985;29;20052;-63
2022/07/06 12:04:56;;;;;;;;;;;;;;;;;;4917673;29;20052;-64
2022/07/06 12:07:23;;;;;;;4.05;1.60;;;;;;;;;;4916594;29;19994;-64
2022/07/06 12:09:50;;;;;;;4.20;1.80;;;;;;;;;;4916464;29;20059;-63
2022/07/06 12:12:17;;;;;;;3.50;2.20;;;;;;;;;;4916706;29;20052;-64
2022/07/06 12:14:44;;;;;;;5.40;2.10;;;;;;;;;;4915568;29;20062;-64
2022/07/06 12:17:14;;;;;;;3.25;1.48;;;;;;;;;;4916423;29;20056;-67
2022/07/06 12:19:41;;;;;;;2.45;2.03;;;;;;;;;;4907251;29;20194;-66
2022/07/06 12:22:09;;;;;;;3.08;1.90;;;;;;;;;;4908495;29;20081;-66
2022/07/06 12:24:37;;;;;;;3.60;2.08;;;;;;;;;;4901998;29;20048;-65
2022/07/06 12:27:13;;;;;;;1.98;1.42;;;;;;;;;;4904864;29;20480;-64
2022/07/06 12:29:40;;;;;;;3.88;1.75;;;;;;;;;;4901349;29;20072;-64
2022/07/06 12:32:14;;;;;;;3.17;1.90;;;;;;;;;;4906468;29;20074;-64
2022/07/06 12:34:40;;;;;;;4.88;2.45;;;;;;;;;;4903757;29;20055;-64
2022/07/06 12:37:08;;;;;;;4.38;1.90;;;;;;;;;;4902129;29;20056;-64
2022/07/06 12:39:46;;;;;;;2.70;1.92;;;;;;;;;;4907018;29;20048;-65
2022/07/06 12:42:13;;;;;;;3.88;1.60;;;;;;;;;;4902213;29;20147;-64
2022/07/06 12:44:46;;;;;;;2.42;1.75;;;;;;;;;;4905308;29;20064;-64
2022/07/06 12:47:17;;;;;;;4.32;1.88;;;;;;;;;;4903205;29;20056;-64
2022/07/06 12:49:44;;;;;;;4.15;1.90;;;;;;;;;;4901528;29;20071;-64
2022/07/06 12:52:12;;;;;;;4.55;1.92;;;;;;;;;;4903095;29;20052;-64
2022/07/06 12:54:44;;;;;;;3.20;2.20;;;;;;;;;;4901979;29;20060;-64
2022/07/06 12:57:14;;;;;;;4.20;2.13;;;;;;;;;;4903495;29;20063;-64
2022/07/06 12:59:42;;;;;;;3.53;1.60;;;;;;;;;;4902225;29;20320;-64
2022/07/06 13:02:17;;;;;;;3.05;1.48;;;;;;;;;;4906941;29;20052;-64
2022/07/06 13:04:43;;;;;;;2.75;1.67;;;;;;;;;;4907284;29;20120;-62
2022/07/06 13:07:18;;;;;;;5.25;1.83;;;;;;;;;;4899852;29;20052;-62
2022/07/06 13:09:45;;;;;;;5.03;1.88;;;;;;;;;;4903064;29;20127;-64
2022/07/06 13:12:12;;;;;;;6.43;1.90;;;;;;;;;;4901979;29;20515;-64
2022/07/06 13:14:38;;;;;;;3.00;1.45;;;;;;;;;;4904625;29;20056;-64
2022/07/06 13:17:05;;;;;;;4.00;1.50;;;;;;;;;;4902063;29;20085;-64
2022/07/06 13:19:32;;;;;;;1.77;1.50;;;;;;;;;;4910920;29;20044;-65
2022/07/06 13:21:58;;;;;;;4.20;1.50;;;;;;;;;;4902742;29;20428;-65
2022/07/06 13:24:27;;;;;;;3.67;1.67;;;;;;;;;;4902239;29;20061;-66
2022/07/06 13:26:57;;;;;;;4.75;1.30;;;;;;;;;;4906303;29;20061;-67
2022/07/06 13:29:24;;;;;;;3.17;1.48;;;;;;;;;;4904348;29;20049;-64
2022/07/06 13:31:51;;;;;;;4.20;1.60;;;;;;;;;;4911806;29;20459;-64
2022/07/06 13:34:18;;;;;;;1.83;1.27;;;;;;;;;;4911168;29;20048;-63
2022/07/06 13:36:44;;;;;;;3.85;1.45;;;;;;;;;;4909577;29;20055;-63
2022/07/06 13:39:11;;;;;;;1.95;1.35;;;;;;;;;;4910533;29;20044;-64
2022/07/06 13:41:38;;;;;;;3.65;1.20;;;;;;;;;;4911577;29;20052;-63
2022/07/06 13:44:05;;;;;;;2.80;1.38;;;;;;;;;;4911708;29;20062;-64
2022/07/06 13:46:40;;;;;;;3.42;1.42;;;;;;;;;;4910165;29;20119;-64
2022/07/06 13:49:07;;;;;;;2.65;1.60;;;;;;;;;;4909911;29;20044;-63
2022/07/06 13:51:33;;;;;;;3.30;1.20;;;;;;;;;;4910935;29;20258;-64
2022/07/06 13:54:01;;;;;;;11.82;2.28;;;;;;;;;;4908659;29;20443;-64
2022/07/06 13:56:30;;;;;;;2.55;1.50;;;;;;;;;;4909833;29;20052;-63
2022/07/06 13:58:57;;;;;;;2.45;1.15;;;;;;;;;;4909274;29;20673;-64
2022/07/06 14:01:24;;;;;;;2.05;1.30;;;;;;;;;;4909606;29;20055;-63
2022/07/06 14:03:56;;;;;;;2.33;1.27;;;;;;;;;;4910497;29;20056;-64
2022/07/06 14:06:22;;;;;;;2.83;1.40;;;;;;;;;;4908793;29;20056;-63
2022/07/06 14:08:49;;;;;;;1.88;1.25;;;;;;;;;;4910458;29;20041;-64
2022/07/06 14:11:16;;;;;;;4.32;1.10;;;;;;;;;;4903320;29;20056;-64
2022/07/06 14:13:43;;;;;;;5.70;1.45;;;;;;;;;;4902378;29;20428;-64
2022/07/06 14:16:10;;;;;;;3.20;1.35;;;;;;;;;;4902576;29;20071;-64
2022/07/06 14:18:37;;;;;;;2.45;1.73;;;;;;;;;;4906646;29;20053;-64
2022/07/06 14:21:03;;;;;;;3.72;1.33;;;;;;;;;;4908425;29;20059;-64
2022/07/06 14:23:30;;;;;;;4.00;1.30;;;;;;;;;;4906213;29;20424;-64
2022/07/06 14:25:57;;;;;;;3.88;1.40;;;;;;;;;;4912728;29;20451;-64
2022/07/06 14:28:24;;;;;;;3.03;1.10;;;;;;;;;;4912494;29;20107;-64
2022/07/06 14:30:50;;;;;;;2.58;1.17;;;;;;;;;;4912162;29;20052;-64
2022/07/06 14:33:18;;;;;;;2.08;1.10;;;;;;;;;;4914620;29;20054;-64
2022/07/06 14:35:47;;;;;;;4.40;1.50;;;;;;;;;;4910193;29;20052;-64
2022/07/06 14:38:18;;;;;;;4.40;1.45;;;;;;;;;;4904884;29;20111;-64
2022/07/06 14:40:45;;;;;;;2.47;1.33;;;;;;;;;;4907057;29;20137;-63
2022/07/06 14:43:12;;;;;;;2.28;1.42;;;;;;;;;;4909419;29;20052;-64
2022/07/06 14:45:47;;;;;;;2.25;1.33;;;;;;;;;;4903798;29;20053;-65
2022/07/06 14:48:14;;;;;;;2.92;1.20;;;;;;;;;;4907460;29;20496;-64
2022/07/06 14:50:41;;;;;;;2.28;1.20;;;;;;;;;;4903963;29;20125;-64
2022/07/06 14:53:07;;;;;;;3.83;1.48;;;;;;;;;;4906597;29;20056;-64
2022/07/06 14:55:34;;;;;;;1.98;1.20;;;;;;;;;;4906205;29;20139;-64